sensor_id;sensor_type;location;lat;lon;timestamp;P1;durP1;ratioP1;P2;durP2;ratioP2
50988;SDS011;37008;52.210;21.112;2023-09-12T00:01:15;28.52;;;25.52;;
50988;SDS011;37008;52.210;21.112;2023-09-12T00:03:41;28.35;;;25.17;;
50988;SDS011;37008;52.210;21.112;2023-09-12T00:06:07;27.23;;;23.13;;
50988;SDS011;37008;52.210;21.112;2023-09-12T00:08:32;27.45;;;24.55;;
50988;SDS011;37008;52.210;21.112;2023-09-12T00:11:07;30.60;;;27.40;;
50988;SDS011;37008;52.210;21.112;2023-09-12T00:13:38;32.50;;;27.27;;
50988;SDS011;37008;52.210;21.112;2023-09-12T00:16:05;30.23;;;26.98;;
50988;SDS011;37008;52.210;21.112;2023-09-12T00:18:31;31.33;;;27.25;;
50988;SDS011;37008;52.210;21.112;2023-09-12T00:20:59;28.77;;;25.80;;
50988;SDS011;37008;52.210;21.112;2023-09-12T00:23:25;29.75;;;25.63;;
50988;SDS011;37008;52.210;21.112;2023-09-12T00:25:52;29.90;;;26.60;;
50988;SDS011;37008;52.210;21.112;2023-09-12T00:28:18;32.50;;;29.08;;
50988;SDS011;37008;52.210;21.112;2023-09-12T00:30:44;32.95;;;26.35;;
50988;SDS011;37008;52.210;21.112;2023-09-12T00:33:10;30.10;;;26.88;;
50988;SDS011;37008;52.210;21.112;2023-09-12T00:35:35;30.10;;;26.05;;
50988;SDS011;37008;52.210;21.112;2023-09-12T00:38:01;37.10;;;28.38;;
50988;SDS011;37008;52.210;21.112;2023-09-12T00:40:27;34.00;;;30.40;;
50988;SDS011;37008;52.210;21.112;2023-09-12T00:42:52;33.72;;;29.60;;
50988;SDS011;37008;52.210;21.112;2023-09-12T00:45:18;30.80;;;27.55;;
50988;SDS011;37008;52.210;21.112;2023-09-12T00:47:44;34.90;;;30.50;;
50988;SDS011;37008;52.210;21.112;2023-09-12T00:50:11;31.35;;;28.02;;
50988;SDS011;37008;52.210;21.112;2023-09-12T00:52:37;31.50;;;28.30;;
50988;SDS011;37008;52.210;21.112;2023-09-12T00:55:04;40.25;;;29.60;;
50988;SDS011;37008;52.210;21.112;2023-09-12T00:57:30;33.42;;;29.67;;
50988;SDS011;37008;52.210;21.112;2023-09-12T00:59:58;37.47;;;30.15;;
50988;SDS011;37008;52.210;21.112;2023-09-12T01:02:26;31.65;;;28.42;;
50988;SDS011;37008;52.210;21.112;2023-09-12T01:04:51;30.73;;;27.17;;
50988;SDS011;37008;52.210;21.112;2023-09-12T01:07:17;32.17;;;28.65;;
50988;SDS011;37008;52.210;21.112;2023-09-12T01:09:42;34.22;;;29.58;;
50988;SDS011;37008;52.210;21.112;2023-09-12T01:12:08;39.03;;;28.90;;
50988;SDS011;37008;52.210;21.112;2023-09-12T01:14:39;35.22;;;27.95;;
50988;SDS011;37008;52.210;21.112;2023-09-12T01:17:05;37.67;;;29.02;;
50988;SDS011;37008;52.210;21.112;2023-09-12T01:19:30;30.73;;;26.77;;
50988;SDS011;37008;52.210;21.112;2023-09-12T01:22:12;35.75;;;28.50;;
50988;SDS011;37008;52.210;21.112;2023-09-12T01:27:30;35.05;;;31.27;;
50988;SDS011;37008;52.210;21.112;2023-09-12T01:30:00;41.75;;;31.60;;
50988;SDS011;37008;52.210;21.112;2023-09-12T01:32:28;41.90;;;31.30;;
50988;SDS011;37008;52.210;21.112;2023-09-12T01:34:56;32.83;;;29.17;;
50988;SDS011;37008;52.210;21.112;2023-09-12T01:37:21;33.95;;;30.33;;
50988;SDS011;37008;52.210;21.112;2023-09-12T01:39:47;34.83;;;29.92;;
50988;SDS011;37008;52.210;21.112;2023-09-12T01:42:13;35.60;;;30.02;;
50988;SDS011;37008;52.210;21.112;2023-09-12T01:44:43;32.83;;;28.45;;
50988;SDS011;37008;52.210;21.112;2023-09-12T01:47:10;31.73;;;28.33;;
50988;SDS011;37008;52.210;21.112;2023-09-12T01:49:37;37.70;;;29.23;;
50988;SDS011;37008;52.210;21.112;2023-09-12T01:52:07;33.83;;;29.23;;
50988;SDS011;37008;52.210;21.112;2023-09-12T01:54:34;36.80;;;29.75;;
50988;SDS011;37008;52.210;21.112;2023-09-12T01:57:01;35.20;;;30.40;;
50988;SDS011;37008;52.210;21.112;2023-09-12T01:59:28;40.33;;;33.15;;
50988;SDS011;37008;52.210;21.112;2023-09-12T02:01:54;34.78;;;31.08;;
50988;SDS011;37008;52.210;21.112;2023-09-12T02:04:20;31.77;;;28.17;;
50988;SDS011;37008;52.210;21.112;2023-09-12T02:06:45;41.70;;;34.25;;
50988;SDS011;37008;52.210;21.112;2023-09-12T02:09:11;40.03;;;31.90;;
50988;SDS011;37008;52.210;21.112;2023-09-12T02:11:37;43.03;;;35.58;;
50988;SDS011;37008;52.210;21.112;2023-09-12T02:14:02;51.13;;;40.30;;
50988;SDS011;37008;52.210;21.112;2023-09-12T02:16:28;45.83;;;40.92;;
50988;SDS011;37008;52.210;21.112;2023-09-12T02:18:56;46.38;;;38.05;;
50988;SDS011;37008;52.210;21.112;2023-09-12T02:21:21;47.97;;;41.67;;
50988;SDS011;37008;52.210;21.112;2023-09-12T02:23:47;36.17;;;32.10;;
50988;SDS011;37008;52.210;21.112;2023-09-12T02:26:12;48.15;;;39.55;;
50988;SDS011;37008;52.210;21.112;2023-09-12T02:28:38;39.67;;;33.35;;
50988;SDS011;37008;52.210;21.112;2023-09-12T02:31:09;43.50;;;37.08;;
50988;SDS011;37008;52.210;21.112;2023-09-12T02:33:35;43.63;;;38.90;;
50988;SDS011;37008;52.210;21.112;2023-09-12T02:36:02;40.47;;;35.28;;
50988;SDS011;37008;52.210;21.112;2023-09-12T02:38:27;43.75;;;32.80;;
50988;SDS011;37008;52.210;21.112;2023-09-12T02:40:53;38.22;;;34.05;;
50988;SDS011;37008;52.210;21.112;2023-09-12T02:43:20;35.30;;;31.45;;
50988;SDS011;37008;52.210;21.112;2023-09-12T02:45:45;38.95;;;31.77;;
50988;SDS011;37008;52.210;21.112;2023-09-12T02:48:11;40.03;;;34.55;;
50988;SDS011;37008;52.210;21.112;2023-09-12T02:50:37;45.40;;;36.58;;
50988;SDS011;37008;52.210;21.112;2023-09-12T02:53:02;38.58;;;33.95;;
50988;SDS011;37008;52.210;21.112;2023-09-12T02:55:28;34.28;;;30.73;;
50988;SDS011;37008;52.210;21.112;2023-09-12T02:57:54;36.70;;;32.75;;
50988;SDS011;37008;52.210;21.112;2023-09-12T03:00:19;38.22;;;32.13;;
50988;SDS011;37008;52.210;21.112;2023-09-12T03:02:45;43.28;;;35.13;;
50988;SDS011;37008;52.210;21.112;2023-09-12T03:05:11;41.38;;;35.10;;
50988;SDS011;37008;52.210;21.112;2023-09-12T03:07:36;35.47;;;31.55;;
50988;SDS011;37008;52.210;21.112;2023-09-12T03:10:02;37.45;;;33.28;;
50988;SDS011;37008;52.210;21.112;2023-09-12T03:12:28;37.30;;;33.47;;
50988;SDS011;37008;52.210;21.112;2023-09-12T03:14:54;42.03;;;36.25;;
50988;SDS011;37008;52.210;21.112;2023-09-12T03:17:20;40.35;;;35.97;;
50988;SDS011;37008;52.210;21.112;2023-09-12T03:19:45;47.35;;;39.90;;
50988;SDS011;37008;52.210;21.112;2023-09-12T03:22:11;43.85;;;37.67;;
50988;SDS011;37008;52.210;21.112;2023-09-12T03:24:37;37.22;;;32.38;;
50988;SDS011;37008;52.210;21.112;2023-09-12T03:27:02;37.42;;;33.28;;
50988;SDS011;37008;52.210;21.112;2023-09-12T03:29:28;37.28;;;32.25;;
50988;SDS011;37008;52.210;21.112;2023-09-12T03:31:54;40.38;;;33.80;;
50988;SDS011;37008;52.210;21.112;2023-09-12T03:34:19;38.55;;;34.20;;
50988;SDS011;37008;52.210;21.112;2023-09-12T03:36:45;36.75;;;32.42;;
50988;SDS011;37008;52.210;21.112;2023-09-12T03:39:10;36.08;;;32.00;;
50988;SDS011;37008;52.210;21.112;2023-09-12T03:41:38;41.53;;;37.03;;
50988;SDS011;37008;52.210;21.112;2023-09-12T03:44:04;39.63;;;35.42;;
50988;SDS011;37008;52.210;21.112;2023-09-12T03:46:29;35.67;;;32.05;;
50988;SDS011;37008;52.210;21.112;2023-09-12T03:48:55;40.50;;;33.53;;
50988;SDS011;37008;52.210;21.112;2023-09-12T03:51:21;36.72;;;32.85;;
50988;SDS011;37008;52.210;21.112;2023-09-12T03:53:46;34.35;;;30.00;;
50988;SDS011;37008;52.210;21.112;2023-09-12T03:56:13;44.58;;;38.60;;
50988;SDS011;37008;52.210;21.112;2023-09-12T03:58:40;37.10;;;33.08;;
50988;SDS011;37008;52.210;21.112;2023-09-12T04:01:06;35.78;;;32.00;;
50988;SDS011;37008;52.210;21.112;2023-09-12T04:03:32;43.25;;;36.47;;
50988;SDS011;37008;52.210;21.112;2023-09-12T04:05:57;38.17;;;34.17;;
50988;SDS011;37008;52.210;21.112;2023-09-12T04:08:23;36.55;;;32.67;;
50988;SDS011;37008;52.210;21.112;2023-09-12T04:10:48;34.53;;;30.75;;
50988;SDS011;37008;52.210;21.112;2023-09-12T04:13:14;38.00;;;33.88;;
50988;SDS011;37008;52.210;21.112;2023-09-12T04:15:40;36.05;;;32.10;;
50988;SDS011;37008;52.210;21.112;2023-09-12T04:18:05;35.80;;;30.92;;
50988;SDS011;37008;52.210;21.112;2023-09-12T04:20:31;41.90;;;32.80;;
50988;SDS011;37008;52.210;21.112;2023-09-12T04:22:57;36.78;;;33.03;;
50988;SDS011;37008;52.210;21.112;2023-09-12T04:25:22;35.25;;;31.45;;
50988;SDS011;37008;52.210;21.112;2023-09-12T04:27:48;42.60;;;34.10;;
50988;SDS011;37008;52.210;21.112;2023-09-12T04:30:13;38.47;;;32.28;;
50988;SDS011;37008;52.210;21.112;2023-09-12T04:32:39;34.67;;;30.98;;
50988;SDS011;37008;52.210;21.112;2023-09-12T04:35:05;38.40;;;33.13;;
50988;SDS011;37008;52.210;21.112;2023-09-12T04:37:31;39.35;;;33.00;;
50988;SDS011;37008;52.210;21.112;2023-09-12T04:39:56;45.38;;;39.10;;
50988;SDS011;37008;52.210;21.112;2023-09-12T04:42:22;39.00;;;33.40;;
50988;SDS011;37008;52.210;21.112;2023-09-12T04:44:47;39.30;;;33.58;;
50988;SDS011;37008;52.210;21.112;2023-09-12T04:47:13;52.58;;;37.28;;
50988;SDS011;37008;52.210;21.112;2023-09-12T04:49:39;42.80;;;36.40;;
50988;SDS011;37008;52.210;21.112;2023-09-12T04:52:05;40.67;;;33.85;;
50988;SDS011;37008;52.210;21.112;2023-09-12T04:54:31;39.70;;;35.35;;
50988;SDS011;37008;52.210;21.112;2023-09-12T04:56:57;42.70;;;36.22;;
50988;SDS011;37008;52.210;21.112;2023-09-12T04:59:23;42.85;;;36.63;;
50988;SDS011;37008;52.210;21.112;2023-09-12T05:01:48;57.08;;;47.80;;
50988;SDS011;37008;52.210;21.112;2023-09-12T05:04:14;39.45;;;35.38;;
50988;SDS011;37008;52.210;21.112;2023-09-12T05:06:40;42.20;;;33.53;;
50988;SDS011;37008;52.210;21.112;2023-09-12T05:09:05;45.92;;;39.33;;
50988;SDS011;37008;52.210;21.112;2023-09-12T05:11:33;39.65;;;35.25;;
50988;SDS011;37008;52.210;21.112;2023-09-12T05:13:59;62.55;;;48.22;;
50988;SDS011;37008;52.210;21.112;2023-09-12T05:16:25;39.28;;;34.75;;
50988;SDS011;37008;52.210;21.112;2023-09-12T05:18:50;40.38;;;34.60;;
50988;SDS011;37008;52.210;21.112;2023-09-12T05:21:16;38.78;;;34.20;;
50988;SDS011;37008;52.210;21.112;2023-09-12T05:23:42;47.83;;;40.28;;
50988;SDS011;37008;52.210;21.112;2023-09-12T05:26:08;42.08;;;37.15;;
50988;SDS011;37008;52.210;21.112;2023-09-12T05:28:33;47.42;;;41.45;;
50988;SDS011;37008;52.210;21.112;2023-09-12T05:30:59;45.65;;;37.80;;
50988;SDS011;37008;52.210;21.112;2023-09-12T05:33:25;44.22;;;37.05;;
50988;SDS011;37008;52.210;21.112;2023-09-12T05:35:50;47.63;;;37.35;;
50988;SDS011;37008;52.210;21.112;2023-09-12T05:38:16;38.60;;;34.47;;
50988;SDS011;37008;52.210;21.112;2023-09-12T05:40:41;44.55;;;37.05;;
50988;SDS011;37008;52.210;21.112;2023-09-12T05:43:07;40.75;;;36.33;;
50988;SDS011;37008;52.210;21.112;2023-09-12T05:45:32;44.20;;;37.83;;
50988;SDS011;37008;52.210;21.112;2023-09-12T05:47:59;49.50;;;40.03;;
50988;SDS011;37008;52.210;21.112;2023-09-12T05:50:25;45.75;;;39.83;;
50988;SDS011;37008;52.210;21.112;2023-09-12T05:52:50;49.38;;;40.03;;
50988;SDS011;37008;52.210;21.112;2023-09-12T05:55:16;42.30;;;37.70;;
50988;SDS011;37008;52.210;21.112;2023-09-12T05:57:42;48.55;;;39.08;;
50988;SDS011;37008;52.210;21.112;2023-09-12T06:00:08;46.05;;;37.88;;
50988;SDS011;37008;52.210;21.112;2023-09-12T06:02:36;43.45;;;38.17;;
50988;SDS011;37008;52.210;21.112;2023-09-12T06:05:05;45.20;;;40.25;;
50988;SDS011;37008;52.210;21.112;2023-09-12T06:07:31;50.40;;;40.35;;
50988;SDS011;37008;52.210;21.112;2023-09-12T06:09:57;49.67;;;40.30;;
50988;SDS011;37008;52.210;21.112;2023-09-12T06:12:23;44.83;;;39.88;;
50988;SDS011;37008;52.210;21.112;2023-09-12T06:14:48;44.03;;;39.20;;
50988;SDS011;37008;52.210;21.112;2023-09-12T06:17:14;48.58;;;38.58;;
50988;SDS011;37008;52.210;21.112;2023-09-12T06:19:40;46.35;;;38.58;;
50988;SDS011;37008;52.210;21.112;2023-09-12T06:22:05;42.33;;;37.83;;
50988;SDS011;37008;52.210;21.112;2023-09-12T06:24:31;47.53;;;36.72;;
50988;SDS011;37008;52.210;21.112;2023-09-12T06:26:57;42.65;;;34.65;;
50988;SDS011;37008;52.210;21.112;2023-09-12T06:29:22;43.58;;;33.58;;
50988;SDS011;37008;52.210;21.112;2023-09-12T06:31:48;45.40;;;36.25;;
50988;SDS011;37008;52.210;21.112;2023-09-12T06:34:13;44.50;;;35.30;;
50988;SDS011;37008;52.210;21.112;2023-09-12T06:36:39;45.47;;;35.17;;
50988;SDS011;37008;52.210;21.112;2023-09-12T06:39:06;53.33;;;36.85;;
50988;SDS011;37008;52.210;21.112;2023-09-12T06:41:32;44.20;;;34.00;;
50988;SDS011;37008;52.210;21.112;2023-09-12T06:43:57;40.55;;;33.17;;
50988;SDS011;37008;52.210;21.112;2023-09-12T06:46:23;41.22;;;33.17;;
50988;SDS011;37008;52.210;21.112;2023-09-12T06:48:50;52.10;;;32.30;;
50988;SDS011;37008;52.210;21.112;2023-09-12T06:51:16;43.47;;;33.92;;
50988;SDS011;37008;52.210;21.112;2023-09-12T06:53:42;51.22;;;33.97;;
50988;SDS011;37008;52.210;21.112;2023-09-12T06:56:08;40.60;;;31.88;;
50988;SDS011;37008;52.210;21.112;2023-09-12T06:58:34;47.03;;;33.13;;
50988;SDS011;37008;52.210;21.112;2023-09-12T07:01:03;44.75;;;29.52;;
50988;SDS011;37008;52.210;21.112;2023-09-12T07:03:31;32.33;;;28.40;;
50988;SDS011;37008;52.210;21.112;2023-09-12T07:05:57;31.05;;;26.92;;
50988;SDS011;37008;52.210;21.112;2023-09-12T07:08:22;35.45;;;26.38;;
50988;SDS011;37008;52.210;21.112;2023-09-12T07:10:48;34.08;;;25.55;;
50988;SDS011;37008;52.210;21.112;2023-09-12T07:13:14;35.20;;;24.13;;
50988;SDS011;37008;52.210;21.112;2023-09-12T07:15:39;32.88;;;23.83;;
50988;SDS011;37008;52.210;21.112;2023-09-12T07:18:05;42.53;;;25.05;;
50988;SDS011;37008;52.210;21.112;2023-09-12T07:20:31;30.45;;;25.30;;
50988;SDS011;37008;52.210;21.112;2023-09-12T07:22:58;27.85;;;22.42;;
50988;SDS011;37008;52.210;21.112;2023-09-12T07:25:24;32.55;;;22.35;;
50988;SDS011;37008;52.210;21.112;2023-09-12T07:27:50;28.35;;;21.23;;
50988;SDS011;37008;52.210;21.112;2023-09-12T07:30:16;31.45;;;21.58;;
50988;SDS011;37008;52.210;21.112;2023-09-12T07:32:42;30.88;;;22.08;;
50988;SDS011;37008;52.210;21.112;2023-09-12T07:35:07;38.78;;;20.77;;
50988;SDS011;37008;52.210;21.112;2023-09-12T07:37:33;33.40;;;20.23;;
50988;SDS011;37008;52.210;21.112;2023-09-12T07:39:59;32.38;;;19.85;;
50988;SDS011;37008;52.210;21.112;2023-09-12T07:42:25;32.88;;;19.50;;
50988;SDS011;37008;52.210;21.112;2023-09-12T07:44:51;30.35;;;19.60;;
50988;SDS011;37008;52.210;21.112;2023-09-12T07:47:16;32.20;;;19.15;;
50988;SDS011;37008;52.210;21.112;2023-09-12T07:49:42;29.63;;;17.85;;
50988;SDS011;37008;52.210;21.112;2023-09-12T07:52:08;27.90;;;17.67;;
50988;SDS011;37008;52.210;21.112;2023-09-12T07:54:34;26.00;;;16.92;;
50988;SDS011;37008;52.210;21.112;2023-09-12T07:56:59;28.27;;;16.38;;
50988;SDS011;37008;52.210;21.112;2023-09-12T07:59:25;23.83;;;16.48;;
50988;SDS011;37008;52.210;21.112;2023-09-12T08:01:50;32.85;;;15.45;;
50988;SDS011;37008;52.210;21.112;2023-09-12T08:04:16;25.77;;;15.48;;
50988;SDS011;37008;52.210;21.112;2023-09-12T08:06:42;36.10;;;16.17;;
50988;SDS011;37008;52.210;21.112;2023-09-12T08:09:08;31.15;;;16.67;;
50988;SDS011;37008;52.210;21.112;2023-09-12T08:11:35;25.50;;;14.68;;
50988;SDS011;37008;52.210;21.112;2023-09-12T08:14:01;25.00;;;14.48;;
50988;SDS011;37008;52.210;21.112;2023-09-12T08:16:26;27.75;;;13.32;;
50988;SDS011;37008;52.210;21.112;2023-09-12T08:18:52;30.02;;;13.43;;
50988;SDS011;37008;52.210;21.112;2023-09-12T08:21:17;22.85;;;13.55;;
50988;SDS011;37008;52.210;21.112;2023-09-12T08:23:43;20.55;;;13.20;;
50988;SDS011;37008;52.210;21.112;2023-09-12T08:26:10;24.77;;;12.35;;
50988;SDS011;37008;52.210;21.112;2023-09-12T08:28:36;22.60;;;12.82;;
50988;SDS011;37008;52.210;21.112;2023-09-12T08:31:01;24.63;;;12.98;;
50988;SDS011;37008;52.210;21.112;2023-09-12T08:33:27;23.13;;;13.65;;
50988;SDS011;37008;52.210;21.112;2023-09-12T08:35:53;17.30;;;12.05;;
50988;SDS011;37008;52.210;21.112;2023-09-12T08:38:18;14.55;;;11.18;;
50988;SDS011;37008;52.210;21.112;2023-09-12T08:40:47;26.38;;;12.20;;
50988;SDS011;37008;52.210;21.112;2023-09-12T08:43:14;17.25;;;12.07;;
50988;SDS011;37008;52.210;21.112;2023-09-12T08:45:40;26.30;;;12.70;;
50988;SDS011;37008;52.210;21.112;2023-09-12T08:48:09;30.17;;;14.55;;
50988;SDS011;37008;52.210;21.112;2023-09-12T08:50:36;22.85;;;12.05;;
50988;SDS011;37008;52.210;21.112;2023-09-12T08:53:02;15.10;;;10.45;;
50988;SDS011;37008;52.210;21.112;2023-09-12T08:55:28;19.92;;;11.23;;
50988;SDS011;37008;52.210;21.112;2023-09-12T08:57:55;17.95;;;11.38;;
50988;SDS011;37008;52.210;21.112;2023-09-12T09:00:22;24.05;;;10.90;;
50988;SDS011;37008;52.210;21.112;2023-09-12T09:02:48;14.65;;;9.57;;
50988;SDS011;37008;52.210;21.112;2023-09-12T09:05:15;19.85;;;10.30;;
50988;SDS011;37008;52.210;21.112;2023-09-12T09:07:42;21.65;;;10.10;;
50988;SDS011;37008;52.210;21.112;2023-09-12T09:10:18;15.30;;;9.85;;
50988;SDS011;37008;52.210;21.112;2023-09-12T09:12:47;21.80;;;10.35;;
50988;SDS011;37008;52.210;21.112;2023-09-12T09:15:25;24.27;;;11.10;;
50988;SDS011;37008;52.210;21.112;2023-09-12T09:17:52;21.42;;;11.68;;
50988;SDS011;37008;52.210;21.112;2023-09-12T09:20:25;22.85;;;11.27;;
50988;SDS011;37008;52.210;21.112;2023-09-12T09:22:59;17.23;;;10.70;;
50988;SDS011;37008;52.210;21.112;2023-09-12T09:25:25;24.27;;;11.57;;
50988;SDS011;37008;52.210;21.112;2023-09-12T09:27:52;17.42;;;10.68;;
50988;SDS011;37008;52.210;21.112;2023-09-12T09:30:17;20.45;;;10.13;;
50988;SDS011;37008;52.210;21.112;2023-09-12T09:32:45;19.80;;;9.90;;
50988;SDS011;37008;52.210;21.112;2023-09-12T09:35:12;15.63;;;9.77;;
50988;SDS011;37008;52.210;21.112;2023-09-12T09:37:38;15.88;;;9.63;;
50988;SDS011;37008;52.210;21.112;2023-09-12T09:40:07;14.23;;;9.63;;
50988;SDS011;37008;52.210;21.112;2023-09-12T09:42:34;14.10;;;9.32;;
50988;SDS011;37008;52.210;21.112;2023-09-12T09:45:00;13.63;;;8.95;;
50988;SDS011;37008;52.210;21.112;2023-09-12T09:47:27;12.65;;;8.77;;
50988;SDS011;37008;52.210;21.112;2023-09-12T09:49:53;18.73;;;9.43;;
50988;SDS011;37008;52.210;21.112;2023-09-12T09:52:25;13.18;;;7.93;;
50988;SDS011;37008;52.210;21.112;2023-09-12T09:54:52;25.33;;;21.45;;
50988;SDS011;37008;52.210;21.112;2023-09-12T09:57:18;18.70;;;11.70;;
50988;SDS011;37008;52.210;21.112;2023-09-12T09:59:43;25.58;;;17.48;;
50988;SDS011;37008;52.210;21.112;2023-09-12T10:02:16;11.98;;;8.60;;
50988;SDS011;37008;52.210;21.112;2023-09-12T10:04:46;11.85;;;8.23;;
50988;SDS011;37008;52.210;21.112;2023-09-12T10:07:12;17.15;;;8.20;;
50988;SDS011;37008;52.210;21.112;2023-09-12T10:09:39;15.13;;;9.57;;
50988;SDS011;37008;52.210;21.112;2023-09-12T10:12:07;12.70;;;8.45;;
50988;SDS011;37008;52.210;21.112;2023-09-12T10:14:34;15.35;;;8.93;;
50988;SDS011;37008;52.210;21.112;2023-09-12T10:17:01;16.10;;;8.30;;
50988;SDS011;37008;52.210;21.112;2023-09-12T10:19:51;14.38;;;8.18;;
50988;SDS011;37008;52.210;21.112;2023-09-12T10:23:11;11.55;;;7.65;;
50988;SDS011;37008;52.210;21.112;2023-09-12T10:25:39;12.20;;;8.27;;
50988;SDS011;37008;52.210;21.112;2023-09-12T10:28:08;54.33;;;11.40;;
50988;SDS011;37008;52.210;21.112;2023-09-12T10:30:34;24.70;;;9.60;;
50988;SDS011;37008;52.210;21.112;2023-09-12T10:33:04;12.20;;;7.85;;
50988;SDS011;37008;52.210;21.112;2023-09-12T10:35:31;11.20;;;7.57;;
50988;SDS011;37008;52.210;21.112;2023-09-12T10:38:02;13.30;;;7.82;;
50988;SDS011;37008;52.210;21.112;2023-09-12T10:40:31;16.42;;;8.27;;
50988;SDS011;37008;52.210;21.112;2023-09-12T10:43:00;14.75;;;7.63;;
50988;SDS011;37008;52.210;21.112;2023-09-12T10:45:28;9.77;;;7.95;;
50988;SDS011;37008;52.210;21.112;2023-09-12T10:47:55;12.38;;;8.40;;
50988;SDS011;37008;52.210;21.112;2023-09-12T10:50:21;15.38;;;8.85;;
50988;SDS011;37008;52.210;21.112;2023-09-12T10:52:46;13.07;;;8.45;;
50988;SDS011;37008;52.210;21.112;2023-09-12T10:55:16;11.10;;;8.23;;
50988;SDS011;37008;52.210;21.112;2023-09-12T11:00:32;12.02;;;8.02;;
50988;SDS011;37008;52.210;21.112;2023-09-12T11:02:58;13.63;;;8.15;;
50988;SDS011;37008;52.210;21.112;2023-09-12T11:07:57;10.57;;;7.82;;
50988;SDS011;37008;52.210;21.112;2023-09-12T11:10:24;21.98;;;9.30;;
50988;SDS011;37008;52.210;21.112;2023-09-12T11:12:53;9.32;;;7.97;;
50988;SDS011;37008;52.210;21.112;2023-09-12T11:15:22;9.75;;;7.90;;
50988;SDS011;37008;52.210;21.112;2023-09-12T11:17:59;13.52;;;8.70;;
50988;SDS011;37008;52.210;21.112;2023-09-12T11:20:27;9.98;;;8.55;;
50988;SDS011;37008;52.210;21.112;2023-09-12T11:23:23;19.00;;;9.57;;
50988;SDS011;37008;52.210;21.112;2023-09-12T11:26:02;19.50;;;10.43;;
50988;SDS011;37008;52.210;21.112;2023-09-12T11:28:31;9.55;;;8.52;;
50988;SDS011;37008;52.210;21.112;2023-09-12T11:30:57;13.60;;;8.82;;
50988;SDS011;37008;52.210;21.112;2023-09-12T11:33:26;12.15;;;8.05;;
50988;SDS011;37008;52.210;21.112;2023-09-12T11:35:53;12.95;;;8.77;;
50988;SDS011;37008;52.210;21.112;2023-09-12T11:38:28;11.10;;;8.75;;
50988;SDS011;37008;52.210;21.112;2023-09-12T11:40:54;9.95;;;8.95;;
50988;SDS011;37008;52.210;21.112;2023-09-12T11:43:24;11.48;;;8.52;;
50988;SDS011;37008;52.210;21.112;2023-09-12T11:45:51;15.85;;;9.50;;
50988;SDS011;37008;52.210;21.112;2023-09-12T11:48:18;13.13;;;9.13;;
50988;SDS011;37008;52.210;21.112;2023-09-12T11:50:48;13.35;;;9.02;;
50988;SDS011;37008;52.210;21.112;2023-09-12T11:53:23;10.07;;;8.43;;
50988;SDS011;37008;52.210;21.112;2023-09-12T11:55:52;11.10;;;8.65;;
50988;SDS011;37008;52.210;21.112;2023-09-12T11:58:21;11.00;;;8.80;;
50988;SDS011;37008;52.210;21.112;2023-09-12T12:00:47;14.38;;;9.07;;
50988;SDS011;37008;52.210;21.112;2023-09-12T12:03:17;12.15;;;8.95;;
50988;SDS011;37008;52.210;21.112;2023-09-12T12:05:45;12.38;;;8.35;;
50988;SDS011;37008;52.210;21.112;2023-09-12T12:08:11;52.67;;;47.00;;
50988;SDS011;37008;52.210;21.112;2023-09-12T12:10:37;11.55;;;8.57;;
50988;SDS011;37008;52.210;21.112;2023-09-12T12:13:05;12.05;;;9.18;;
50988;SDS011;37008;52.210;21.112;2023-09-12T12:15:31;9.25;;;8.35;;
50988;SDS011;37008;52.210;21.112;2023-09-12T12:17:57;11.93;;;8.70;;
50988;SDS011;37008;52.210;21.112;2023-09-12T12:20:23;11.63;;;9.70;;
50988;SDS011;37008;52.210;21.112;2023-09-12T12:22:49;10.57;;;9.52;;
50988;SDS011;37008;52.210;21.112;2023-09-12T12:25:17;13.82;;;8.82;;
50988;SDS011;37008;52.210;21.112;2023-09-12T12:27:43;10.30;;;8.65;;
50988;SDS011;37008;52.210;21.112;2023-09-12T12:30:10;11.48;;;8.63;;
50988;SDS011;37008;52.210;21.112;2023-09-12T12:32:44;10.45;;;8.85;;
50988;SDS011;37008;52.210;21.112;2023-09-12T12:35:18;10.45;;;9.13;;
50988;SDS011;37008;52.210;21.112;2023-09-12T12:37:45;14.02;;;8.70;;
50988;SDS011;37008;52.210;21.112;2023-09-12T12:40:12;14.48;;;8.77;;
50988;SDS011;37008;52.210;21.112;2023-09-12T12:42:39;12.35;;;9.30;;
50988;SDS011;37008;52.210;21.112;2023-09-12T12:45:13;14.85;;;8.85;;
50988;SDS011;37008;52.210;21.112;2023-09-12T12:47:43;12.55;;;9.18;;
50988;SDS011;37008;52.210;21.112;2023-09-12T12:50:10;12.82;;;8.57;;
50988;SDS011;37008;52.210;21.112;2023-09-12T12:52:38;24.58;;;10.65;;
50988;SDS011;37008;52.210;21.112;2023-09-12T12:55:09;16.27;;;9.20;;
50988;SDS011;37008;52.210;21.112;2023-09-12T12:57:36;21.15;;;9.88;;
50988;SDS011;37008;52.210;21.112;2023-09-12T13:00:05;15.75;;;9.27;;
50988;SDS011;37008;52.210;21.112;2023-09-12T13:02:32;12.88;;;8.73;;
50988;SDS011;37008;52.210;21.112;2023-09-12T13:04:58;15.15;;;8.65;;
50988;SDS011;37008;52.210;21.112;2023-09-12T13:07:23;16.10;;;8.75;;
50988;SDS011;37008;52.210;21.112;2023-09-12T13:09:49;13.00;;;8.85;;
50988;SDS011;37008;52.210;21.112;2023-09-12T13:12:15;13.10;;;8.82;;
50988;SDS011;37008;52.210;21.112;2023-09-12T13:14:42;17.25;;;8.68;;
50988;SDS011;37008;52.210;21.112;2023-09-12T13:17:09;12.55;;;8.52;;
50988;SDS011;37008;52.210;21.112;2023-09-12T13:19:34;15.40;;;8.85;;
50988;SDS011;37008;52.210;21.112;2023-09-12T13:22:00;11.85;;;9.30;;
50988;SDS011;37008;52.210;21.112;2023-09-12T13:24:26;14.77;;;8.48;;
50988;SDS011;37008;52.210;21.112;2023-09-12T13:26:52;11.48;;;9.35;;
50988;SDS011;37008;52.210;21.112;2023-09-12T13:29:18;12.98;;;9.20;;
50988;SDS011;37008;52.210;21.112;2023-09-12T13:31:44;11.55;;;9.35;;
50988;SDS011;37008;52.210;21.112;2023-09-12T13:34:10;16.10;;;8.88;;
50988;SDS011;37008;52.210;21.112;2023-09-12T13:36:36;12.52;;;8.85;;
50988;SDS011;37008;52.210;21.112;2023-09-12T13:39:01;19.40;;;8.73;;
50988;SDS011;37008;52.210;21.112;2023-09-12T13:41:27;11.43;;;9.02;;
50988;SDS011;37008;52.210;21.112;2023-09-12T13:43:53;14.05;;;8.52;;
50988;SDS011;37008;52.210;21.112;2023-09-12T13:46:19;13.10;;;8.75;;
50988;SDS011;37008;52.210;21.112;2023-09-12T13:48:44;12.68;;;9.07;;
50988;SDS011;37008;52.210;21.112;2023-09-12T13:51:10;12.57;;;9.10;;
50988;SDS011;37008;52.210;21.112;2023-09-12T13:53:36;17.90;;;9.38;;
50988;SDS011;37008;52.210;21.112;2023-09-12T13:56:02;12.82;;;9.73;;
50988;SDS011;37008;52.210;21.112;2023-09-12T13:58:28;14.75;;;8.90;;
50988;SDS011;37008;52.210;21.112;2023-09-12T14:00:53;10.60;;;9.20;;
50988;SDS011;37008;52.210;21.112;2023-09-12T14:03:19;11.27;;;9.13;;
50988;SDS011;37008;52.210;21.112;2023-09-12T14:05:44;10.27;;;9.10;;
50988;SDS011;37008;52.210;21.112;2023-09-12T14:08:10;11.25;;;9.80;;
50988;SDS011;37008;52.210;21.112;2023-09-12T14:10:36;12.65;;;9.23;;
50988;SDS011;37008;52.210;21.112;2023-09-12T14:13:01;11.70;;;9.93;;
50988;SDS011;37008;52.210;21.112;2023-09-12T14:15:27;15.32;;;9.88;;
50988;SDS011;37008;52.210;21.112;2023-09-12T14:17:52;15.10;;;9.77;;
50988;SDS011;37008;52.210;21.112;2023-09-12T14:20:18;16.15;;;9.68;;